createdAt,value
2019-03-25T00:01:22.171Z,17.07
2019-03-25T00:03:54.138Z,17.20
2019-03-25T00:06:23.692Z,16.53
2019-03-25T00:09:04.850Z,16.10
2019-03-25T00:11:26.435Z,15.87
2019-03-25T00:13:56.315Z,16.73
2019-03-25T00:16:26.259Z,16.77
2019-03-25T00:18:56.146Z,15.57
2019-03-25T00:21:25.988Z,15.70
2019-03-25T00:23:55.859Z,16.10
2019-03-25T00:26:25.792Z,16.10
2019-03-25T00:28:55.730Z,16.47
2019-03-25T00:31:25.579Z,16.37
2019-03-25T00:33:55.429Z,15.30
2019-03-25T00:36:25.294Z,17.17
2019-03-25T00:38:55.146Z,16.40
2019-03-25T00:41:25.180Z,16.87
2019-03-25T00:43:55.131Z,16.90
2019-03-25T00:46:25.114Z,16.43
2019-03-25T00:48:54.984Z,16.60
2019-03-25T00:51:24.821Z,17.03
2019-03-25T00:53:54.697Z,17.33
2019-03-25T00:56:24.624Z,17.20
2019-03-25T00:58:54.485Z,16.90
2019-03-25T01:01:24.391Z,16.60
2019-03-25T01:03:55.349Z,17.23
2019-03-25T01:06:25.266Z,16.70
2019-03-25T01:08:55.405Z,16.43
2019-03-25T01:11:25.305Z,17.27
2019-03-25T01:13:55.174Z,17.13
2019-03-25T01:16:25.166Z,16.97
2019-03-25T01:18:55.053Z,17.47
2019-03-25T01:21:26.735Z,17.90
2019-03-25T01:23:59.986Z,16.27
2019-03-25T01:26:29.858Z,17.17
2019-03-25T01:28:59.686Z,16.07
2019-03-25T01:31:29.618Z,16.67
2019-03-25T01:33:59.483Z,15.97
2019-03-25T01:36:29.327Z,17.03
2019-03-25T01:39:00.982Z,17.13
2019-03-25T01:41:30.963Z,18.30
2019-03-25T01:44:02.611Z,17.17
2019-03-25T01:46:32.438Z,18.03
2019-03-25T01:49:02.395Z,18.23
2019-03-25T01:51:32.187Z,18.77
2019-03-25T01:54:02.030Z,17.60
2019-03-25T01:56:31.885Z,17.43
2019-03-25T01:59:01.699Z,19.20
2019-03-25T02:01:31.600Z,19.67
2019-03-25T02:04:01.556Z,18.20
2019-03-25T02:06:31.440Z,19.20
2019-03-25T02:09:02.737Z,19.83
2019-03-25T02:11:32.637Z,18.83
2019-03-25T02:14:02.611Z,18.83
2019-03-25T02:16:32.443Z,18.43
2019-03-25T02:19:02.423Z,19.37
2019-03-25T02:21:32.276Z,19.23
2019-03-25T02:24:02.158Z,19.30
2019-03-25T02:26:31.975Z,18.63
2019-03-25T02:29:01.830Z,19.77
2019-03-25T02:31:32.799Z,18.90
2019-03-25T02:34:03.591Z,18.67
2019-03-25T02:36:33.449Z,19.30
2019-03-25T02:39:03.921Z,18.90
2019-03-25T02:41:33.757Z,19.17
2019-03-25T02:44:03.565Z,18.37
2019-03-25T02:46:33.411Z,19.33
2019-03-25T02:49:03.256Z,19.40
2019-03-25T02:51:33.204Z,19.57
2019-03-25T02:54:03.025Z,19.20
2019-03-25T02:56:32.899Z,18.30
2019-03-25T02:59:02.752Z,18.97
2019-03-25T03:01:32.828Z,19.13
2019-03-25T03:04:02.671Z,18.83
2019-03-25T03:06:32.600Z,18.80
2019-03-25T03:09:02.571Z,18.20
2019-03-25T03:11:32.426Z,18.13
2019-03-25T03:14:02.272Z,16.80
2019-03-25T03:16:32.106Z,16.43
2019-03-25T03:19:01.921Z,16.10
2019-03-25T03:21:31.767Z,16.63
2019-03-25T03:24:01.724Z,16.33
2019-03-25T03:26:31.561Z,16.17
2019-03-25T03:29:01.470Z,16.43
2019-03-25T03:31:31.311Z,15.27
2019-03-25T03:34:01.327Z,15.57
2019-03-25T03:36:31.301Z,15.30
2019-03-25T03:39:01.249Z,14.43
2019-03-25T03:41:31.662Z,14.67
2019-03-25T03:44:01.620Z,14.80
2019-03-25T03:46:31.452Z,14.70
2019-03-25T03:49:01.306Z,14.23
2019-03-25T03:51:31.226Z,13.33
2019-03-25T03:54:01.383Z,13.77
2019-03-25T03:56:32.717Z,13.97
2019-03-25T03:59:04.043Z,13.30
2019-03-25T04:01:33.876Z,14.10
2019-03-25T04:04:04.198Z,14.13
2019-03-25T04:06:34.187Z,14.30
2019-03-25T04:09:10.323Z,13.37
2019-03-25T04:11:40.167Z,13.37
2019-03-25T04:14:10.026Z,11.70
2019-03-25T04:16:39.964Z,11.97
2019-03-25T04:19:09.884Z,11.13
2019-03-25T04:21:39.773Z,10.53
2019-03-25T04:24:11.417Z,10.33
2019-03-25T04:26:41.239Z,10.23
2019-03-25T04:29:11.129Z,9.43
2019-03-25T04:31:40.993Z,9.20
2019-03-25T04:34:11.538Z,9.20
2019-03-25T04:36:42.773Z,8.37
2019-03-25T04:39:13.340Z,8.17
2019-03-25T04:41:43.766Z,7.70
2019-03-25T04:44:15.693Z,7.17
2019-03-25T04:46:47.147Z,6.83
2019-03-25T04:49:18.208Z,6.80
2019-03-25T04:51:49.148Z,6.93
2019-03-25T04:54:19.586Z,5.97
2019-03-25T04:56:50.110Z,6.07
2019-03-25T04:59:20.334Z,5.23
2019-03-25T05:01:50.547Z,5.80
2019-03-25T05:04:20.776Z,5.57
2019-03-25T05:06:51.185Z,5.17
2019-03-25T05:09:21.414Z,5.43
2019-03-25T05:11:51.768Z,6.10
2019-03-25T05:14:22.142Z,5.00
2019-03-25T05:16:52.078Z,5.67
2019-03-25T05:19:22.291Z,4.97
2019-03-25T05:21:52.269Z,5.60
2019-03-25T05:24:23.145Z,5.47
2019-03-25T05:26:53.123Z,4.33
2019-03-25T05:29:23.083Z,5.10
2019-03-25T05:31:52.936Z,4.60
2019-03-25T05:34:22.785Z,4.97
2019-03-25T05:36:52.723Z,5.03
2019-03-25T05:39:22.604Z,5.10
2019-03-25T05:41:52.417Z,5.03
2019-03-25T05:44:22.244Z,4.27
2019-03-25T05:46:52.086Z,4.53
2019-03-25T05:49:21.891Z,4.23
2019-03-25T05:51:51.724Z,4.77
2019-03-25T05:54:21.593Z,4.50
2019-03-25T05:57:02.007Z,4.73
2019-03-25T05:59:23.219Z,4.43
2019-03-25T06:01:53.102Z,5.07
2019-03-25T06:04:22.982Z,4.40
2019-03-25T06:06:52.931Z,5.10
2019-03-25T06:09:22.777Z,4.13
2019-03-25T06:12:06.665Z,4.30
2019-03-25T06:14:36.916Z,4.70
2019-03-25T06:17:06.863Z,4.33
2019-03-25T06:19:36.807Z,4.70
2019-03-25T06:22:06.735Z,4.47
2019-03-25T06:24:36.602Z,4.10
2019-03-25T06:27:14.021Z,4.77
2019-03-25T06:29:38.245Z,4.47
2019-03-25T06:32:08.089Z,4.87
2019-03-25T06:34:37.997Z,4.63
2019-03-25T06:37:07.863Z,4.80
2019-03-25T06:39:37.782Z,4.47
2019-03-25T06:42:07.637Z,3.73
2019-03-25T06:44:37.483Z,4.07
2019-03-25T06:47:09.153Z,4.47
2019-03-25T06:49:39.191Z,4.80
2019-03-25T06:52:08.988Z,4.57
2019-03-25T06:54:39.962Z,4.80
2019-03-25T06:57:09.771Z,4.00
2019-03-25T06:59:39.695Z,4.70
2019-03-25T07:02:09.537Z,4.47
2019-03-25T07:04:39.382Z,4.77
2019-03-25T07:07:09.211Z,4.27
2019-03-25T07:09:39.081Z,4.57
2019-03-25T07:12:09.024Z,4.80
2019-03-25T07:14:38.886Z,4.40
2019-03-25T07:17:08.740Z,4.20
2019-03-25T07:19:38.576Z,4.40
2019-03-25T07:22:08.431Z,4.20
2019-03-25T07:24:39.783Z,3.70
2019-03-25T07:27:09.638Z,4.20
2019-03-25T07:29:39.551Z,3.63
2019-03-25T07:32:09.430Z,4.30
2019-03-25T07:34:41.231Z,4.30
2019-03-25T07:37:10.985Z,4.17
2019-03-25T07:39:40.977Z,4.17
2019-03-25T07:42:10.873Z,4.30
2019-03-25T07:44:40.790Z,4.70
2019-03-25T07:47:10.673Z,4.43
2019-03-25T07:49:40.533Z,5.30
2019-03-25T07:52:10.384Z,4.77
2019-03-25T07:54:40.281Z,4.83
2019-03-25T07:57:11.828Z,5.77
2019-03-25T07:59:41.986Z,5.17
2019-03-25T08:02:11.849Z,5.63
2019-03-25T08:04:41.697Z,6.33
2019-03-25T08:07:12.150Z,5.90
2019-03-25T08:09:42.161Z,6.27
2019-03-25T08:12:12.033Z,6.40
2019-03-25T08:14:44.115Z,5.90
2019-03-25T08:17:14.022Z,6.83
2019-03-25T08:19:43.957Z,6.37
2019-03-25T08:22:13.880Z,7.00
2019-03-25T08:24:43.798Z,5.90
2019-03-25T08:27:13.765Z,6.00
2019-03-25T08:29:43.570Z,5.93
2019-03-25T08:32:13.413Z,6.10
2019-03-25T08:34:43.276Z,6.67
2019-03-25T08:37:13.209Z,6.40
2019-03-25T08:39:43.065Z,6.40
2019-03-25T08:42:12.920Z,6.70
2019-03-25T08:44:42.732Z,6.10
2019-03-25T08:47:12.708Z,6.40
2019-03-25T08:49:42.582Z,7.17
2019-03-25T08:52:12.537Z,7.23
2019-03-25T08:54:42.365Z,7.87
2019-03-25T08:57:12.220Z,7.03
2019-03-25T08:59:42.073Z,7.40
2019-03-25T09:02:12.005Z,6.43
2019-03-25T09:04:42.012Z,7.30
2019-03-25T09:07:11.833Z,7.27
2019-03-25T09:09:41.691Z,6.80
2019-03-25T09:12:11.512Z,7.37
2019-03-25T09:14:41.352Z,7.53
2019-03-25T09:17:11.314Z,6.20
2019-03-25T09:19:41.153Z,6.50
2019-03-25T09:22:11.001Z,7.07
2019-03-25T09:24:40.854Z,6.60
2019-03-25T09:27:10.727Z,6.43
2019-03-25T09:29:40.682Z,6.47
2019-03-25T09:32:10.606Z,5.33
2019-03-25T09:34:40.579Z,6.63
2019-03-25T09:37:10.561Z,5.63
2019-03-25T09:39:40.504Z,6.20
2019-03-25T09:42:10.487Z,5.70
2019-03-25T09:44:40.336Z,5.53
2019-03-25T09:47:10.318Z,4.73
2019-03-25T09:49:40.277Z,5.57
2019-03-25T09:52:10.105Z,5.53
2019-03-25T09:54:39.956Z,5.53
2019-03-25T09:57:09.900Z,5.37
2019-03-25T09:59:39.732Z,6.60
2019-03-25T10:02:09.576Z,6.13
2019-03-25T10:04:39.527Z,5.67
2019-03-25T10:07:11.039Z,6.33
2019-03-25T10:09:40.861Z,6.87
2019-03-25T10:12:10.665Z,7.07
2019-03-25T10:14:40.530Z,6.30
2019-03-25T10:17:12.167Z,7.50
2019-03-25T10:19:42.007Z,7.50
2019-03-25T10:22:11.791Z,6.27
2019-03-25T10:24:41.635Z,6.83
2019-03-25T10:27:11.464Z,6.23
2019-03-25T10:29:41.427Z,6.17
2019-03-25T10:32:11.251Z,5.73
2019-03-25T10:34:41.061Z,5.83
2019-03-25T10:37:10.943Z,6.33
2019-03-25T10:39:40.754Z,6.67
2019-03-25T10:42:10.614Z,6.90
2019-03-25T10:44:40.437Z,7.33
2019-03-25T10:47:11.674Z,6.50
2019-03-25T10:49:41.486Z,6.73
2019-03-25T10:52:11.429Z,6.70
2019-03-25T10:54:41.368Z,6.23
2019-03-25T10:57:11.897Z,6.37
2019-03-25T10:59:41.766Z,6.27
2019-03-25T11:02:11.995Z,7.17
2019-03-25T11:04:42.002Z,7.73
2019-03-25T11:07:11.975Z,6.30
2019-03-25T11:09:41.871Z,5.70
2019-03-25T11:12:11.721Z,6.00
2019-03-25T11:14:41.541Z,5.60
2019-03-25T11:17:11.498Z,5.73
2019-03-25T11:19:41.351Z,6.10
2019-03-25T11:22:11.209Z,5.63
2019-03-25T11:24:41.010Z,5.37
2019-03-25T11:27:10.855Z,3.07
2019-03-25T11:29:40.709Z,1.40
2019-03-25T11:32:11.182Z,1.40
2019-03-25T11:34:41.008Z,1.63
2019-03-25T11:37:10.948Z,1.50
2019-03-25T11:39:43.955Z,1.60
2019-03-25T11:42:15.262Z,1.60
2019-03-25T11:44:45.143Z,2.00
2019-03-25T11:47:16.566Z,2.07
2019-03-25T11:49:47.468Z,2.37
2019-03-25T11:52:19.125Z,2.30
2019-03-25T11:54:48.998Z,2.93
2019-03-25T11:57:18.913Z,2.83
2019-03-25T11:59:48.737Z,2.70
2019-03-25T12:02:18.641Z,2.50
2019-03-25T12:04:48.491Z,3.50
2019-03-25T12:07:18.469Z,3.80
2019-03-25T12:09:48.373Z,3.33
2019-03-25T12:12:18.212Z,3.50
2019-03-25T12:14:48.063Z,3.30
2019-03-25T12:17:19.361Z,3.43
2019-03-25T12:19:49.248Z,1.87
2019-03-25T12:22:19.324Z,1.00
2019-03-25T12:24:49.187Z,0.90
2019-03-25T12:27:19.011Z,1.00
2019-03-25T12:29:48.833Z,0.60
2019-03-25T12:32:18.672Z,0.70
2019-03-25T12:34:49.712Z,0.60
2019-03-25T12:37:19.610Z,0.73
2019-03-25T12:39:49.545Z,0.60
2019-03-25T12:42:19.446Z,0.40
2019-03-25T12:44:49.286Z,0.40
2019-03-25T12:47:20.371Z,0.30
2019-03-25T12:49:51.329Z,0.40
2019-03-25T12:52:21.179Z,0.40
2019-03-25T12:54:51.019Z,0.40
2019-03-25T12:57:20.965Z,0.47
2019-03-25T12:59:50.903Z,0.77
2019-03-25T13:02:20.782Z,0.80
2019-03-25T13:04:50.765Z,0.80
2019-03-25T13:07:20.648Z,0.77
2019-03-25T13:09:50.502Z,1.23
2019-03-25T13:12:20.321Z,1.73
2019-03-25T13:14:50.165Z,1.60
2019-03-25T13:17:20.056Z,1.83
2019-03-25T13:19:49.998Z,2.03
2019-03-25T13:22:19.942Z,1.97
2019-03-25T13:24:49.760Z,2.00
2019-03-25T13:27:19.597Z,2.50
2019-03-25T13:29:52.719Z,2.30
2019-03-25T13:32:21.075Z,2.23
2019-03-25T13:34:50.940Z,1.27
2019-03-25T13:37:20.859Z,1.00
2019-03-25T13:39:50.915Z,1.10
2019-03-25T13:42:20.846Z,1.50
2019-03-25T13:44:50.692Z,1.37
2019-03-25T13:47:20.805Z,1.70
2019-03-25T13:49:50.632Z,1.53
2019-03-25T13:52:20.510Z,1.43
2019-03-25T13:54:50.364Z,1.47
2019-03-25T13:57:20.205Z,1.50
2019-03-25T13:59:50.037Z,1.27
2019-03-25T14:02:19.853Z,1.40
2019-03-25T14:04:49.770Z,1.53
2019-03-25T14:07:19.717Z,1.30
2019-03-25T14:09:49.572Z,1.20
2019-03-25T14:12:19.444Z,1.50
2019-03-25T14:14:50.352Z,1.20
2019-03-25T14:17:20.401Z,1.50
2019-03-25T14:19:50.236Z,1.80
2019-03-25T14:22:20.098Z,1.70
2019-03-25T14:24:49.940Z,1.50
2019-03-25T14:27:19.772Z,0.70
2019-03-25T14:29:49.711Z,0.50
2019-03-25T14:32:19.550Z,0.50
2019-03-25T14:34:49.363Z,0.40
2019-03-25T14:37:19.197Z,0.40
2019-03-25T14:39:50.836Z,0.40
2019-03-25T14:42:20.703Z,0.30
2019-03-25T14:44:50.619Z,0.43
2019-03-25T14:47:20.852Z,0.40
2019-03-25T14:49:50.725Z,0.40
2019-03-25T14:52:20.552Z,0.50
2019-03-25T14:54:50.434Z,0.50
2019-03-25T14:57:20.253Z,0.50
2019-03-25T14:59:51.074Z,0.50
2019-03-25T15:02:20.957Z,0.40
2019-03-25T15:04:50.936Z,0.50
2019-03-25T15:07:20.937Z,0.63
2019-03-25T15:09:50.850Z,0.50
2019-03-25T15:12:20.746Z,0.80
2019-03-25T15:14:50.723Z,0.50
2019-03-25T15:17:20.596Z,0.70
2019-03-25T15:19:50.512Z,0.60
2019-03-25T15:22:20.380Z,0.80
2019-03-25T15:24:50.219Z,0.67
2019-03-25T15:27:20.031Z,1.23
2019-03-25T15:29:49.892Z,0.90
2019-03-25T15:32:19.846Z,0.90
2019-03-25T15:34:49.804Z,0.90
2019-03-25T15:37:19.683Z,1.00
2019-03-25T15:39:49.531Z,1.17
2019-03-25T15:42:19.437Z,0.90
2019-03-25T15:44:49.285Z,0.90
2019-03-25T15:47:19.210Z,0.80
2019-03-25T15:49:50.875Z,0.70
2019-03-25T15:52:20.894Z,0.80
2019-03-25T15:54:50.704Z,0.90
2019-03-25T15:57:20.660Z,0.80
2019-03-25T15:59:50.520Z,0.80
2019-03-25T16:02:20.479Z,0.77
2019-03-25T16:04:50.311Z,0.80
2019-03-25T16:07:20.165Z,0.80
2019-03-25T16:09:50.015Z,1.00
2019-03-25T16:12:20.896Z,0.70
2019-03-25T16:14:50.699Z,0.50
2019-03-25T16:17:20.540Z,0.63
2019-03-25T16:19:50.441Z,1.00
2019-03-25T16:22:20.450Z,1.00
2019-03-25T16:24:50.346Z,0.80
2019-03-25T16:27:23.069Z,0.80
2019-03-25T16:29:52.978Z,0.60
2019-03-25T16:32:22.859Z,0.80
2019-03-25T16:34:52.738Z,0.70
2019-03-25T16:37:23.718Z,0.80
2019-03-25T16:39:53.559Z,0.63
2019-03-25T16:42:23.405Z,0.60
2019-03-25T16:44:53.243Z,0.50
2019-03-25T16:47:23.100Z,0.60
2019-03-25T16:49:53.013Z,0.57
2019-03-25T16:52:22.897Z,0.60
2019-03-25T16:54:52.774Z,0.40
2019-03-25T16:57:24.238Z,0.40
2019-03-25T16:59:56.392Z,0.50
2019-03-25T17:02:26.562Z,0.40
2019-03-25T17:04:56.445Z,0.53
2019-03-25T17:07:26.422Z,0.50
2019-03-25T17:09:56.288Z,0.50
2019-03-25T17:12:26.142Z,0.70
2019-03-25T17:14:56.138Z,0.60
2019-03-25T17:17:26.073Z,0.70
2019-03-25T17:19:55.919Z,0.60
2019-03-25T17:22:25.871Z,0.60
2019-03-25T17:24:55.811Z,0.70
2019-03-25T17:27:25.661Z,0.70
2019-03-25T17:29:55.494Z,0.70
2019-03-25T17:32:25.369Z,0.70
2019-03-25T17:34:55.213Z,0.60
2019-03-25T17:37:25.123Z,0.87
2019-03-25T17:39:56.463Z,0.63
2019-03-25T17:42:26.355Z,0.53
2019-03-25T17:44:56.211Z,0.70
2019-03-25T17:47:26.165Z,0.73
2019-03-25T17:49:58.357Z,0.60
2019-03-25T17:52:28.305Z,0.73
2019-03-25T17:54:58.210Z,0.70
2019-03-25T17:57:28.065Z,0.60
2019-03-25T17:59:57.913Z,0.70
2019-03-25T18:02:27.800Z,0.77
2019-03-25T18:04:57.650Z,0.90
2019-03-25T18:07:27.540Z,0.90
2019-03-25T18:09:57.390Z,1.07
2019-03-25T18:12:34.535Z,1.03
2019-03-25T18:14:58.783Z,1.13
2019-03-25T18:17:28.648Z,0.90
2019-03-25T18:20:00.118Z,1.00
2019-03-25T18:22:39.483Z,1.00
2019-03-25T18:25:05.953Z,1.10
2019-03-25T18:27:37.996Z,0.90
2019-03-25T18:30:10.536Z,0.80
2019-03-25T18:32:42.627Z,1.00
2019-03-25T18:35:17.789Z,0.90
2019-03-25T18:37:49.822Z,0.87
2019-03-25T18:40:20.737Z,0.80
2019-03-25T18:42:50.649Z,1.03
2019-03-25T18:45:21.678Z,0.83
2019-03-25T18:47:53.335Z,0.80
2019-03-25T18:50:23.645Z,1.60
2019-03-25T18:52:53.513Z,0.80
2019-03-25T18:55:25.340Z,0.90
2019-03-25T18:57:55.629Z,1.10
2019-03-25T19:00:33.421Z,0.83
2019-03-25T19:03:03.537Z,0.90
2019-03-25T19:05:33.623Z,0.97
2019-03-25T19:08:05.984Z,0.90
2019-03-25T19:10:35.925Z,1.30
2019-03-25T19:13:05.991Z,1.20
2019-03-25T19:15:36.994Z,1.07
2019-03-25T19:18:06.851Z,1.30
2019-03-25T19:20:36.737Z,1.20
2019-03-25T19:23:06.746Z,1.53
2019-03-25T19:25:36.640Z,1.17
2019-03-25T19:28:06.562Z,1.10
2019-03-25T19:30:36.530Z,1.33
2019-03-25T19:33:06.638Z,1.30
2019-03-25T19:35:36.715Z,1.50
2019-03-25T19:38:06.651Z,1.47
2019-03-25T19:40:36.992Z,1.57
2019-03-25T19:43:07.022Z,1.70
2019-03-25T19:45:36.998Z,1.50
2019-03-25T19:48:06.969Z,1.60
2019-03-25T19:50:36.898Z,1.50
2019-03-25T19:53:18.350Z,2.10
2019-03-25T19:55:38.805Z,2.63
2019-03-25T19:58:08.786Z,2.47
2019-03-25T20:00:40.415Z,2.30
2019-03-25T20:03:10.365Z,2.00
2019-03-25T20:05:40.339Z,2.40
2019-03-25T20:08:10.452Z,2.37
2019-03-25T20:10:40.585Z,1.90
2019-03-25T20:13:10.644Z,1.83
2019-03-25T20:15:46.504Z,1.93
2019-03-25T20:18:12.331Z,2.03
2019-03-25T20:20:42.156Z,2.13
2019-03-25T20:23:12.038Z,1.63
2019-03-25T20:25:41.814Z,1.97
2019-03-25T20:28:11.714Z,2.20
2019-03-25T20:30:41.617Z,1.47
2019-03-25T20:33:11.561Z,1.37
2019-03-25T20:35:41.447Z,1.60
2019-03-25T20:38:11.473Z,1.40
2019-03-25T20:40:41.627Z,1.10
2019-03-25T20:43:11.553Z,1.40
2019-03-25T20:45:41.668Z,1.63
2019-03-25T20:48:11.747Z,1.50
2019-03-25T20:50:41.831Z,1.60
2019-03-25T20:53:11.767Z,1.80
2019-03-25T20:55:41.657Z,1.50
2019-03-25T20:58:11.775Z,1.40
2019-03-25T21:00:49.202Z,1.30
2019-03-25T21:03:19.372Z,1.00
2019-03-25T21:05:49.279Z,1.00
2019-03-25T21:08:19.193Z,1.20
2019-03-25T21:10:49.192Z,1.00
2019-03-25T21:13:19.387Z,0.97
2019-03-25T21:15:49.207Z,0.97
2019-03-25T21:18:19.275Z,1.00
2019-03-25T21:20:49.139Z,0.83
2019-03-25T21:23:18.984Z,0.87
2019-03-25T21:25:48.822Z,0.97
2019-03-25T21:28:18.667Z,0.60
2019-03-25T21:30:48.888Z,0.60
2019-03-25T21:33:18.991Z,0.60
2019-03-25T21:35:49.546Z,0.60
2019-03-25T21:38:19.592Z,0.90
2019-03-25T21:40:49.753Z,0.70
2019-03-25T21:43:19.927Z,0.50
2019-03-25T21:45:49.885Z,0.50
2019-03-25T21:48:19.795Z,0.50
2019-03-25T21:50:49.639Z,0.70
2019-03-25T21:53:19.647Z,0.60
2019-03-25T21:55:49.449Z,0.40
2019-03-25T21:58:19.546Z,0.50
2019-03-25T22:00:51.954Z,0.50
2019-03-25T22:03:21.864Z,0.50
2019-03-25T22:05:52.077Z,0.60
2019-03-25T22:08:21.963Z,0.80
2019-03-25T22:10:51.777Z,0.60
2019-03-25T22:13:21.692Z,0.60
2019-03-25T22:15:52.350Z,0.70
2019-03-25T22:18:22.183Z,0.60
2019-03-25T22:20:52.095Z,0.60
2019-03-25T22:23:21.956Z,0.60
2019-03-25T22:25:52.442Z,0.60
2019-03-25T22:28:22.304Z,0.80
2019-03-25T22:30:52.429Z,0.90
2019-03-25T22:33:26.146Z,0.70
2019-03-25T22:35:53.971Z,0.70
2019-03-25T22:38:23.805Z,0.70
2019-03-25T22:40:53.630Z,0.60
2019-03-25T22:43:23.491Z,0.77
2019-03-25T22:45:53.580Z,0.80
2019-03-25T22:48:23.402Z,1.20
2019-03-25T22:50:53.289Z,0.70
2019-03-25T22:53:23.195Z,0.97
2019-03-25T22:55:53.151Z,1.20
2019-03-25T22:58:24.441Z,0.80
2019-03-25T23:00:55.091Z,0.90
2019-03-25T23:03:38.187Z,0.90
2019-03-25T23:05:56.716Z,1.10
2019-03-25T23:08:26.802Z,0.90
2019-03-25T23:10:56.648Z,0.90
2019-03-25T23:13:27.893Z,0.90
2019-03-25T23:15:57.835Z,1.00
2019-03-25T23:18:27.702Z,0.90
2019-03-25T23:20:57.532Z,1.10
2019-03-25T23:23:27.412Z,0.90
2019-03-25T23:25:57.242Z,1.20
2019-03-25T23:28:27.096Z,1.30
2019-03-25T23:30:56.920Z,0.93
2019-03-25T23:33:26.928Z,1.00
2019-03-25T23:35:56.747Z,1.33
2019-03-25T23:38:26.564Z,1.40
2019-03-25T23:40:58.409Z,1.40
2019-03-25T23:43:28.302Z,1.50
2019-03-25T23:45:58.190Z,1.80
2019-03-25T23:48:28.043Z,1.80
2019-03-25T23:50:57.925Z,2.03
2019-03-25T23:53:27.788Z,1.90
2019-03-25T23:55:57.605Z,2.00
2019-03-25T23:58:27.446Z,1.57
